Time;durP1;ratioP1;P1;durP2;ratioP2;P2;SDS_P1;SDS_P2;PMS_P1;PMS_P2;Temp;Humidity;BMP_temperature;BMP_pressure;BME280_temperature;BME280_humidity;BME280_pressure;Samples;Min_cycle;Max_cycle;Signal;HPM_P1;HPM_P2
2023/05/01 00:02:12;;;;;;;2.88;1.00;;;;;;;5.62;45.32;101570.47;4957336;28;20051;-72
2023/05/01 00:04:39;;;;;;;7.10;1.35;;;;;;;5.59;45.28;101572.16;4958616;28;20051;-70
2023/05/01 00:07:06;;;;;;;5.28;1.23;;;;;;;5.56;45.88;101562.59;4958379;28;20058;-70
2023/05/01 00:09:32;;;;;;;3.17;0.90;;;;;;;5.54;45.83;101566.88;4956836;28;20047;-70
2023/05/01 00:12:01;;;;;;;2.63;0.88;;;;;;;5.52;45.86;101570.28;4959147;28;20050;-70
2023/05/01 00:14:29;;;;;;;3.28;1.00;;;;;;;5.50;45.69;101572.00;4956742;28;20047;-70
2023/05/01 00:16:55;;;;;;;4.30;1.30;;;;;;;5.47;45.66;101567.66;4957265;28;20142;-70
2023/05/01 00:19:24;;;;;;;3.08;0.95;;;;;;;5.42;45.87;101574.47;4952833;28;20051;-70
2023/05/01 00:21:51;;;;;;;2.10;0.65;;;;;;;5.41;46.15;101573.63;4956081;28;20062;-71
2023/05/01 00:24:18;;;;;;;3.22;0.90;;;;;;;5.39;46.08;101575.31;4961463;28;20058;-70
2023/05/01 00:26:45;;;;;;;2.38;0.93;;;;;;;5.36;45.95;101579.56;4954608;28;20050;-70
2023/05/01 00:29:12;;;;;;;5.15;1.27;;;;;;;5.35;46.12;101577.81;4958062;28;20042;-70
2023/05/01 00:31:40;;;;;;;6.65;1.13;;;;;;;5.32;45.91;101577.75;4957227;28;20047;-70
2023/05/01 00:34:07;;;;;;;3.83;1.00;;;;;;;5.30;46.22;101572.56;4957263;28;20055;-70
2023/05/01 00:36:35;;;;;;;5.18;0.95;;;;;;;5.25;46.10;101565.56;4959356;28;20047;-70
2023/05/01 00:39:02;;;;;;;1.83;0.90;;;;;;;5.25;46.33;101561.25;4957381;28;20094;-71
2023/05/01 00:41:29;;;;;;;2.55;0.80;;;;;;;5.24;46.31;101569.03;4954840;28;20743;-70
2023/05/01 00:43:56;;;;;;;5.22;0.90;;;;;;;5.21;46.15;101571.53;4960343;28;20043;-70
2023/05/01 00:46:24;;;;;;;1.30;0.70;;;;;;;5.18;46.52;101570.66;4954272;28;21027;-70
2023/05/01 00:48:52;;;;;;;1.98;0.63;;;;;;;5.15;46.83;101562.84;4959248;28;20059;-70
2023/05/01 00:51:20;;;;;;;1.33;0.63;;;;;;;5.14;46.21;101557.63;4957255;28;20621;-70
2023/05/01 00:53:48;;;;;;;1.95;0.93;;;;;;;5.12;46.58;101557.63;4958730;28;21344;-70
2023/05/01 00:56:15;;;;;;;2.20;0.70;;;;;;;5.09;46.96;101554.06;4954641;28;20047;-70
2023/05/01 00:58:44;;;;;;;2.92;0.77;;;;;;;5.07;46.69;101555.78;4953798;28;20061;-70
2023/05/01 01:01:12;;;;;;;4.03;0.88;;;;;;;5.06;46.65;101559.22;4951580;28;20496;-70
2023/05/01 01:03:39;;;;;;;3.50;0.60;;;;;;;5.03;46.83;101543.63;4962809;28;20078;-69
2023/05/01 01:06:14;;;;;;;6.25;0.73;;;;;;;5.01;46.94;101556.56;4957922;28;20515;-70
2023/05/01 01:08:46;;;;;;;1.13;0.73;;;;;;;4.99;46.80;101547.88;4956451;28;20061;-70
2023/05/01 01:11:24;;;;;;;2.47;0.50;;;;;;;4.97;47.14;101549.56;4958229;28;20051;-70
2023/05/01 01:13:59;;;;;;;2.15;0.70;;;;;;;4.94;47.14;101550.38;4955412;28;20138;-70
2023/05/01 01:16:36;;;;;;;1.30;0.50;;;;;;;4.92;47.19;101551.19;4954370;28;20043;-71
2023/05/01 01:19:19;;;;;;;3.85;0.70;;;;;;;4.89;47.26;101545.97;4955261;28;20507;-70
2023/05/01 01:21:51;;;;;;;1.38;0.90;;;;;;;4.87;47.32;101547.69;4959544;28;20423;-70
2023/05/01 01:24:36;;;;;;;1.70;0.80;;;;;;;4.84;47.57;101548.50;4953861;28;20423;-70
2023/05/01 01:27:33;;;;;;;2.33;0.50;;;;;;;4.82;47.39;101549.31;4956846;28;20114;-70
2023/05/01 01:30:31;;;;;;;2.00;0.50;;;;;;;4.80;47.56;101549.28;4957279;28;20667;-70
2023/05/01 01:33:17;;;;;;;2.38;0.45;;;;;;;4.79;47.78;101546.69;4952924;28;20051;-70
2023/05/01 01:35:53;;;;;;;1.65;0.47;;;;;;;4.77;47.62;101548.34;4952429;28;20047;-70
2023/05/01 01:38:25;;;;;;;1.00;0.52;;;;;;;4.74;47.83;101550.03;4951499;28;20051;-70
2023/05/01 01:40:58;;;;;;;2.75;0.55;;;;;;;4.74;47.83;101549.19;4957876;28;20419;-71
2023/05/01 01:43:27;;;;;;;1.85;1.05;;;;;;;4.70;47.80;101545.66;4960732;28;20046;-70
2023/05/01 01:45:59;;;;;;;1.58;0.60;;;;;;;4.69;47.90;101541.31;4954395;28;20492;-70
2023/05/01 01:48:31;;;;;;;1.58;0.60;;;;;;;4.68;47.85;101543.91;4958277;28;20625;-70
2023/05/01 01:51:01;;;;;;;2.83;0.45;;;;;;;4.67;48.39;101542.16;4958550;28;20770;-71
2023/05/01 01:53:31;;;;;;;1.95;0.60;;;;;;;4.64;48.15;101540.38;4960466;28;20059;-70
2023/05/01 01:55:59;;;;;;;1.42;0.75;;;;;;;4.62;48.38;101544.66;4960604;28;20420;-70
2023/05/01 01:58:28;;;;;;;1.15;0.40;;;;;;;4.61;48.52;101545.50;4953959;28;20083;-70
2023/05/01 02:00:57;;;;;;;2.92;0.50;;;;;;;4.60;48.66;101535.13;4957630;28;20054;-70
2023/05/01 02:03:26;;;;;;;4.03;0.60;;;;;;;4.58;48.53;101529.03;4951821;28;20054;-70
2023/05/01 02:05:55;;;;;;;0.80;0.50;;;;;;;4.57;48.49;101532.47;4956980;28;20141;-70
2023/05/01 02:08:25;;;;;;;2.88;0.50;;;;;;;4.55;48.42;101535.03;4953558;28;20515;-70
2023/05/01 02:10:58;;;;;;;5.25;0.90;;;;;;;4.53;48.49;101525.50;4956714;28;20058;-70
2023/05/01 02:13:27;;;;;;;1.98;0.45;;;;;;;4.52;48.59;101529.78;4950859;28;20047;-70
2023/05/01 02:15:55;;;;;;;4.90;0.73;;;;;;;4.49;48.50;101519.38;4913964;28;20689;-74
2023/05/01 02:18:23;;;;;;;5.00;0.68;;;;;;;4.47;48.77;101524.56;4958103;28;20094;-74
2023/05/01 02:20:51;;;;;;;1.88;0.40;;;;;;;4.45;48.71;101522.78;4955884;28;20051;-74
2023/05/01 02:23:18;;;;;;;0.95;0.47;;;;;;;4.42;48.90;101522.72;4956713;28;20050;-74
2023/05/01 02:25:48;;;;;;;4.60;0.50;;;;;;;4.40;48.66;101517.50;4956830;28;20055;-75
2023/05/01 02:28:21;;;;;;;1.13;0.47;;;;;;;4.39;48.96;101520.06;4957743;28;20055;-74
2023/05/01 02:30:48;;;;;;;3.88;0.80;;;;;;;4.37;49.11;101514.88;4957836;28;20051;-74
2023/05/01 02:33:15;;;;;;;1.65;0.40;;;;;;;4.36;49.05;101520.03;4958838;28;20070;-74
2023/05/01 02:35:43;;;;;;;1.10;0.50;;;;;;;4.35;49.32;101515.66;4965229;28;20051;-74
2023/05/01 02:38:11;;;;;;;2.78;0.50;;;;;;;4.33;49.34;101507.91;4955836;28;20143;-74
2023/05/01 02:40:39;;;;;;;3.08;1.58;;;;;;;4.31;49.68;101498.38;4959473;28;20058;-74
2023/05/01 02:43:12;;;;;;;4.93;0.63;;;;;;;4.30;49.72;101502.69;4960371;28;20136;-74
2023/05/01 02:45:41;;;;;;;2.25;0.63;;;;;;;4.28;49.40;101500.03;4960396;28;20059;-74
2023/05/01 02:48:11;;;;;;;1.50;0.60;;;;;;;4.26;49.58;101493.97;4960647;28;20058;-74
2023/05/01 02:50:39;;;;;;;2.20;0.60;;;;;;;4.26;49.61;101496.53;4962680;28;20563;-70
2023/05/01 02:53:07;;;;;;;1.55;0.47;;;;;;;4.24;50.05;101489.59;4955599;28;20054;-67
2023/05/01 02:55:35;;;;;;;2.08;0.45;;;;;;;4.23;49.92;101491.31;4961586;28;20054;-67
2023/05/01 02:58:01;;;;;;;2.05;0.60;;;;;;;4.23;50.10;101490.47;4955791;28;20065;-68
2023/05/01 03:00:30;;;;;;;1.60;0.40;;;;;;;4.21;49.81;101484.38;4961791;28;20043;-67
2023/05/01 03:02:57;;;;;;;2.05;0.63;;;;;;;4.19;49.85;101481.78;4959940;28;20045;-68
2023/05/01 03:05:23;;;;;;;2.38;0.40;;;;;;;4.18;49.99;101485.19;4962678;28;20043;-67
2023/05/01 03:07:50;;;;;;;3.15;0.40;;;;;;;4.16;50.12;101484.31;4961934;28;20050;-68
2023/05/01 03:10:17;;;;;;;3.08;0.50;;;;;;;4.16;50.21;101478.28;4958304;28;20050;-67
2023/05/01 03:12:44;;;;;;;1.25;0.50;;;;;;;4.15;50.32;101486.84;4960331;28;20055;-68
2023/05/01 03:15:12;;;;;;;4.47;0.60;;;;;;;4.14;50.65;101477.34;4957031;28;20538;-67
2023/05/01 03:17:40;;;;;;;1.25;0.55;;;;;;;4.12;50.70;101471.28;4960968;28;20043;-67
2023/05/01 03:20:08;;;;;;;0.85;0.40;;;;;;;4.13;50.67;101479.06;4961661;28;20051;-67
2023/05/01 03:22:35;;;;;;;3.85;0.60;;;;;;;4.13;50.97;101475.63;4961799;28;20056;-67
2023/05/01 03:25:03;;;;;;;0.93;0.50;;;;;;;4.11;50.67;101470.41;4957693;28;20079;-67
2023/05/01 03:27:30;;;;;;;1.80;0.50;;;;;;;4.11;50.77;101474.72;4957760;28;20051;-67
2023/05/01 03:29:57;;;;;;;4.43;0.77;;;;;;;4.03;50.97;101456.47;4959314;28;20043;-67
2023/05/01 03:32:24;;;;;;;1.13;0.43;;;;;;;4.10;50.91;101467.78;4961063;28;20057;-67
2023/05/01 03:34:52;;;;;;;2.45;0.40;;;;;;;4.10;51.28;101473.84;4963340;28;20083;-67
2023/05/01 03:37:19;;;;;;;1.67;0.47;;;;;;;4.10;51.61;101466.09;4961160;28;20051;-68
2023/05/01 03:39:46;;;;;;;1.25;0.40;;;;;;;4.10;51.13;101467.78;4962289;28;20106;-68
2023/05/01 03:42:13;;;;;;;2.50;0.40;;;;;;;4.08;51.50;101462.59;4961065;28;20055;-67
2023/05/01 03:44:40;;;;;;;1.30;0.40;;;;;;;4.09;51.35;101466.91;4961736;28;20058;-67
2023/05/01 03:47:07;;;;;;;2.22;0.50;;;;;;;4.08;51.76;101472.94;4959777;28;20051;-67
2023/05/01 03:49:33;;;;;;;1.15;0.40;;;;;;;4.09;52.05;101464.34;4956699;28;20058;-67
2023/05/01 03:52:02;;;;;;;4.82;0.63;;;;;;;4.08;51.54;101457.44;4956120;28;20047;-67
2023/05/01 03:54:28;;;;;;;4.05;0.55;;;;;;;4.10;52.02;101462.59;4960825;28;20050;-67
2023/05/01 03:56:55;;;;;;;4.45;0.50;;;;;;;4.10;51.83;101463.50;4959891;28;20061;-67
2023/05/01 03:59:22;;;;;;;2.92;0.70;;;;;;;4.11;51.70;101465.25;4960523;28;20059;-68
2023/05/01 04:01:49;;;;;;;2.42;0.60;;;;;;;4.11;52.07;101462.66;4958733;28;20054;-67
2023/05/01 04:04:16;;;;;;;3.00;0.47;;;;;;;4.12;51.88;101456.63;4955931;28;20047;-67
2023/05/01 04:06:43;;;;;;;4.80;0.75;;;;;;;4.14;52.38;101464.44;4959072;28;20087;-67
2023/05/01 04:09:11;;;;;;;4.30;0.50;;;;;;;4.14;52.34;101449.78;4957886;28;20058;-67
2023/05/01 04:11:38;;;;;;;2.90;0.43;;;;;;;4.17;52.89;101454.16;4960731;28;20132;-67
2023/05/01 04:14:04;;;;;;;2.90;0.50;;;;;;;4.19;52.32;101453.34;4954529;28;20618;-67
2023/05/01 04:16:31;;;;;;;1.38;0.50;;;;;;;4.20;52.55;101454.19;4957212;28;20051;-67
2023/05/01 04:18:58;;;;;;;2.47;0.50;;;;;;;4.21;52.75;101449.06;4957456;28;20054;-68
2023/05/01 04:21:25;;;;;;;3.70;0.50;;;;;;;4.25;53.16;101448.25;4958573;28;20052;-68
2023/05/01 04:23:52;;;;;;;1.90;0.43;;;;;;;4.28;53.54;101445.72;4960921;28;20517;-67
2023/05/01 04:26:20;;;;;;;5.68;0.43;;;;;;;4.33;53.37;101448.41;4953561;28;20046;-68
2023/05/01 04:28:47;;;;;;;3.53;0.45;;;;;;;4.37;53.43;101446.75;4959104;28;20050;-68
2023/05/01 04:31:14;;;;;;;4.30;0.40;;;;;;;4.42;53.80;101448.56;4956943;28;20059;-68
2023/05/01 04:33:41;;;;;;;2.42;0.63;;;;;;;4.50;53.81;101431.47;4960515;28;20051;-68
2023/05/01 04:36:08;;;;;;;3.55;0.40;;;;;;;4.58;53.76;101438.47;4959084;28;20062;-67
2023/05/01 04:38:35;;;;;;;3.45;0.80;;;;;;;4.66;54.02;101440.34;4953333;28;20510;-68
2023/05/01 04:41:02;;;;;;;3.67;0.57;;;;;;;4.74;54.01;101443.94;4957691;28;20575;-68
2023/05/01 04:43:31;;;;;;;1.13;0.68;;;;;;;4.85;54.32;101440.66;4960545;28;20047;-68
2023/05/01 04:45:58;;;;;;;3.28;0.50;;;;;;;4.95;53.96;101442.50;4961144;28;20480;-68
2023/05/01 04:48:25;;;;;;;4.35;0.50;;;;;;;5.06;54.15;101443.53;4960719;28;20062;-68
2023/05/01 04:50:51;;;;;;;1.58;0.63;;;;;;;5.17;54.16;101444.56;4956910;28;20410;-68
2023/05/01 04:53:18;;;;;;;7.00;0.65;;;;;;;5.28;53.91;101438.69;4948903;28;20047;-68
2023/05/01 04:55:45;;;;;;;3.85;0.47;;;;;;;5.41;53.97;101443.19;4954932;28;20054;-68
2023/05/01 04:58:12;;;;;;;4.68;0.75;;;;;;;5.53;54.26;101445.94;4956664;28;20047;-68
2023/05/01 05:00:40;;;;;;;3.90;0.50;;;;;;;5.66;54.21;101438.31;4959170;28;20522;-68
2023/05/01 05:03:07;;;;;;;2.80;0.45;;;;;;;5.80;53.77;101448.00;4961171;28;20053;-68
2023/05/01 05:05:34;;;;;;;5.72;0.50;;;;;;;5.92;53.59;101447.28;4956310;28;20066;-68
2023/05/01 05:08:01;;;;;;;4.47;0.50;;;;;;;6.05;53.64;101440.53;4954862;28;20043;-68
2023/05/01 05:10:28;;;;;;;3.60;0.60;;;;;;;6.18;53.63;101434.63;4953562;28;20496;-68
2023/05/01 05:12:55;;;;;;;3.22;1.50;;;;;;;6.30;53.41;101433.88;4958093;28;20534;-68
2023/05/01 05:15:22;;;;;;;2.85;0.55;;;;;;;6.43;53.35;101438.34;4960834;28;20078;-68
2023/05/01 05:17:50;;;;;;;1.65;0.40;;;;;;;6.53;53.03;101434.09;4957570;28;20050;-68
2023/05/01 05:20:17;;;;;;;5.95;0.65;;;;;;;6.65;52.95;101430.72;4957020;28;20047;-67
2023/05/01 05:22:44;;;;;;;5.32;0.57;;;;;;;6.75;53.02;101432.53;4957836;28;20047;-68
2023/05/01 05:25:11;;;;;;;9.93;1.00;;;;;;;6.85;52.92;101429.13;4953038;28;20058;-68
2023/05/01 05:27:38;;;;;;;5.00;0.43;;;;;;;6.95;52.96;101428.34;4959040;28;20074;-68
2023/05/01 05:30:06;;;;;;;5.05;0.80;;;;;;;7.05;52.52;101431.00;4954262;28;20071;-68
2023/05/01 05:32:33;;;;;;;4.68;0.50;;;;;;;7.14;52.59;101428.47;4955628;28;20158;-68
2023/05/01 05:35:01;;;;;;;3.28;0.80;;;;;;;7.22;52.50;101427.66;4954314;28;20047;-68
2023/05/01 05:37:28;;;;;;;2.25;0.50;;;;;;;7.30;52.10;101422.50;4956460;28;20492;-68
2023/05/01 05:39:55;;;;;;;4.35;0.70;;;;;;;7.38;52.20;101428.63;4954269;28;20102;-68
2023/05/01 05:42:22;;;;;;;3.58;0.50;;;;;;;7.45;52.23;101424.31;4951972;28;20488;-69
2023/05/01 05:44:49;;;;;;;3.47;0.60;;;;;;;7.53;51.74;101426.94;4953458;28;20143;-67
2023/05/01 05:47:16;;;;;;;4.35;0.80;;;;;;;7.59;51.65;101430.44;4955096;28;20047;-67
2023/05/01 05:49:42;;;;;;;4.63;0.70;;;;;;;7.65;51.74;101429.59;4954970;28;20476;-68
2023/05/01 05:52:11;;;;;;;8.30;1.20;;;;;;;7.72;51.74;101430.50;4955337;28;20562;-68
2023/05/01 05:54:37;;;;;;;2.30;0.60;;;;;;;7.77;51.74;101434.88;4955045;28;20051;-68
2023/05/01 05:57:04;;;;;;;3.47;0.80;;;;;;;7.82;51.54;101435.72;4956607;28;20054;-68
2023/05/01 05:59:31;;;;;;;6.28;1.30;;;;;;;7.89;51.56;101434.03;4955691;28;20055;-68
2023/05/01 06:01:58;;;;;;;3.22;0.70;;;;;;;7.93;51.23;101424.50;4953024;28;20057;-68
2023/05/01 06:04:25;;;;;;;2.55;0.52;;;;;;;7.97;51.58;101421.03;4958711;28;20138;-68
2023/05/01 06:06:52;;;;;;;7.15;0.80;;;;;;;8.03;51.42;101418.47;4954774;28;20061;-68
2023/05/01 06:09:20;;;;;;;6.57;1.33;;;;;;;8.07;51.06;101412.38;4962904;28;20051;-68
2023/05/01 06:11:47;;;;;;;2.05;0.60;;;;;;;8.13;51.30;101411.53;4961223;28;20082;-68
2023/05/01 06:14:14;;;;;;;5.70;0.70;;;;;;;8.16;51.03;101404.59;4958953;28;20059;-68
2023/05/01 06:16:41;;;;;;;6.53;0.75;;;;;;;8.20;51.13;101408.09;4960910;28;20052;-68
2023/05/01 06:19:09;;;;;;;3.63;0.80;;;;;;;8.23;51.27;101402.88;4959010;28;20055;-68
2023/05/01 06:21:36;;;;;;;3.65;0.70;;;;;;;8.29;51.37;101405.50;4963233;28;20142;-68
2023/05/01 06:24:03;;;;;;;5.18;0.80;;;;;;;8.34;51.48;101409.84;4962654;28;20050;-69
2023/05/01 06:26:31;;;;;;;5.93;0.80;;;;;;;8.39;51.39;101409.84;4963068;28;20042;-68
2023/05/01 06:28:58;;;;;;;2.65;0.60;;;;;;;8.44;51.30;101409.88;4962098;28;20066;-68
2023/05/01 06:31:25;;;;;;;9.60;1.20;;;;;;;8.47;51.29;101412.47;4958919;28;20868;-68
2023/05/01 06:33:52;;;;;;;5.35;0.98;;;;;;;8.50;50.86;101408.13;4962549;28;20663;-68
2023/05/01 06:36:19;;;;;;;5.07;1.00;;;;;;;8.54;50.47;101409.88;4962023;28;20051;-68
2023/05/01 06:38:48;;;;;;;7.55;0.68;;;;;;;8.58;50.42;101412.47;4959272;28;20055;-68
2023/05/01 06:41:15;;;;;;;5.43;1.10;;;;;;;8.63;50.74;101410.75;4956651;28;20050;-69
2023/05/01 06:43:43;;;;;;;5.38;0.70;;;;;;;8.66;50.56;101408.13;4960152;28;20074;-69
2023/05/01 06:46:11;;;;;;;6.82;1.67;;;;;;;8.71;50.97;101412.47;4958407;28;20423;-70
2023/05/01 06:48:38;;;;;;;3.15;0.65;;;;;;;8.75;50.51;101398.56;4957211;28;20047;-69
2023/05/01 06:51:04;;;;;;;8.68;1.48;;;;;;;8.80;50.34;101400.31;4965750;28;20049;-69
2023/05/01 06:53:31;;;;;;;6.38;0.90;;;;;;;8.84;50.33;101405.50;4960465;28;20066;-69
2023/05/01 06:55:58;;;;;;;6.40;0.73;;;;;;;8.88;50.48;101393.34;4960031;28;20051;-68
2023/05/01 06:58:25;;;;;;;7.05;0.80;;;;;;;8.93;50.54;101389.00;4960363;28;20048;-68
2023/05/01 07:00:54;;;;;;;5.22;0.80;;;;;;;8.97;50.87;101388.13;4961292;28;20608;-68
2023/05/01 07:03:21;;;;;;;7.20;0.80;;;;;;;9.03;50.46;101388.13;4960631;28;20054;-68
2023/05/01 07:05:48;;;;;;;9.40;1.33;;;;;;;9.09;49.89;101384.63;4955836;28;20471;-68
2023/05/01 07:08:15;;;;;;;6.10;1.42;;;;;;;9.14;49.94;101388.94;4931077;28;20523;-69
2023/05/01 07:10:42;;;;;;;3.95;1.08;;;;;;;9.20;50.22;101385.47;4962008;28;20051;-68
2023/05/01 07:13:09;;;;;;;4.00;1.05;;;;;;;9.26;50.10;101389.78;4957795;28;20054;-68
2023/05/01 07:15:37;;;;;;;8.18;1.42;;;;;;;9.29;49.92;101380.22;4961155;28;20049;-68
2023/05/01 07:18:05;;;;;;;5.95;0.90;;;;;;;9.34;49.96;101377.59;4958751;28;20401;-68
2023/05/01 07:20:33;;;;;;;8.57;1.10;;;;;;;9.39;49.59;101381.94;4953644;28;20111;-68
2023/05/01 07:23:00;;;;;;;4.18;0.90;;;;;;;9.44;49.77;101381.88;4962677;28;20499;-68
2023/05/01 07:25:27;;;;;;;4.93;1.23;;;;;;;9.48;49.65;101382.72;4961921;28;20063;-68
2023/05/01 07:27:54;;;;;;;3.65;1.38;;;;;;;9.50;49.65;101379.25;4961946;28;20050;-68
2023/05/01 07:30:21;;;;;;;7.70;1.33;;;;;;;9.55;49.80;101372.28;4958034;28;20055;-68
2023/05/01 07:32:47;;;;;;;3.80;1.20;;;;;;;9.59;49.45;101374.00;4959987;28;20058;-68
2023/05/01 07:35:16;;;;;;;3.67;1.05;;;;;;;9.65;49.65;101368.75;4951975;28;20046;-68
2023/05/01 07:37:43;;;;;;;3.55;1.20;;;;;;;9.73;49.68;101376.53;4952197;28;20053;-68
2023/05/01 07:40:11;;;;;;;3.22;0.95;;;;;;;9.80;49.86;101375.63;4934770;28;20057;-68
2023/05/01 07:42:37;;;;;;;5.50;1.30;;;;;;;9.87;49.45;101376.44;4960676;28;20043;-68
2023/05/01 07:45:06;;;;;;;4.38;1.10;;;;;;;9.95;49.55;101373.81;4958723;28;20126;-68
2023/05/01 07:47:33;;;;;;;8.02;1.00;;;;;;;10.02;49.83;101368.53;4957923;28;20058;-74
2023/05/01 07:49:59;;;;;;;3.65;1.40;;;;;;;10.12;49.85;101369.34;4962255;28;20058;-75
2023/05/01 07:52:28;;;;;;;7.88;1.20;;;;;;;10.19;49.09;101362.31;4959480;28;20523;-74
2023/05/01 07:54:55;;;;;;;5.15;0.90;;;;;;;10.28;49.38;101362.31;4965684;28;20051;-74
2023/05/01 07:57:22;;;;;;;7.95;1.00;;;;;;;10.36;49.16;101360.50;4961093;28;20055;-75
2023/05/01 07:59:53;;;;;;;5.97;0.90;;;;;;;10.45;49.00;101352.59;4960455;28;20098;-74
2023/05/01 08:02:20;;;;;;;4.57;1.25;;;;;;;10.52;49.04;101349.03;4959185;28;20400;-75
2023/05/01 08:04:47;;;;;;;8.05;1.20;;;;;;;10.61;49.14;101352.44;4958240;28;20057;-74
2023/05/01 08:07:14;;;;;;;4.80;1.80;;;;;;;10.67;48.13;101354.97;4959742;28;20590;-75
2023/05/01 08:09:42;;;;;;;10.25;3.10;;;;;;;10.72;48.59;101354.06;4958500;28;20526;-75
2023/05/01 08:12:09;;;;;;;6.85;1.33;;;;;;;10.77;48.01;101356.63;4958466;28;20895;-75
2023/05/01 08:14:35;;;;;;;4.57;0.80;;;;;;;10.79;48.04;101347.91;4960771;28;20051;-74
2023/05/01 08:17:02;;;;;;;8.13;2.63;;;;;;;10.89;47.91;101353.03;4959359;28;20046;-74
2023/05/01 08:19:29;;;;;;;4.95;2.80;;;;;;;10.90;47.70;101347.81;4956502;28;20051;-75
2023/05/01 08:21:56;;;;;;;8.95;3.35;;;;;;;10.94;48.29;101352.09;4958878;28;20061;-74
2023/05/01 08:24:23;;;;;;;6.15;1.02;;;;;;;10.98;48.33;101347.69;4959200;28;20369;-75
2023/05/01 08:26:52;;;;;;;4.35;1.38;;;;;;;11.01;47.81;101353.78;4958564;28;20420;-75
2023/05/01 08:29:18;;;;;;;6.40;1.13;;;;;;;11.05;47.40;101353.75;4958446;28;20050;-75
2023/05/01 08:31:45;;;;;;;3.55;1.20;;;;;;;11.10;47.67;101359.75;4957633;28;20054;-75
2023/05/01 08:34:12;;;;;;;10.30;1.70;;;;;;;11.13;47.81;101351.91;4962498;28;20047;-75
2023/05/01 08:36:39;;;;;;;7.78;1.98;;;;;;;11.17;48.10;101353.59;4961478;28;20517;-75
2023/05/01 08:39:06;;;;;;;4.25;1.20;;;;;;;11.21;48.09;101352.66;4956914;28;20537;-76
2023/05/01 08:41:34;;;;;;;6.30;1.30;;;;;;;11.23;47.67;101353.50;4962754;28;20048;-75
2023/05/01 08:44:03;;;;;;;11.27;1.63;;;;;;;11.26;47.40;101345.63;4957550;28;20050;-75
2023/05/01 08:46:45;;;;;;;7.03;1.10;;;;;;;11.27;47.40;101347.38;4964097;28;20046;-74
2023/05/01 08:49:14;;;;;;;4.55;0.82;;;;;;;11.30;47.57;101349.97;4954438;28;20047;-74
2023/05/01 08:51:42;;;;;;;4.05;0.75;;;;;;;11.30;47.25;101344.72;4954914;28;20063;-74
2023/05/01 08:54:10;;;;;;;3.28;0.80;;;;;;;11.33;47.38;101335.97;4960010;28;20558;-74
2023/05/01 08:56:37;;;;;;;6.95;0.90;;;;;;;11.34;46.92;101341.16;4956261;28;20051;-73
2023/05/01 08:59:09;;;;;;;5.60;0.93;;;;;;;11.36;47.15;101339.41;4956150;28;20046;-74
2023/05/01 09:01:37;;;;;;;8.35;0.75;;;;;;;11.38;46.93;101336.75;4957910;28;20051;-75
2023/05/01 09:04:06;;;;;;;4.45;1.33;;;;;;;11.39;46.96;101342.00;4956491;28;20054;-74
2023/05/01 09:06:34;;;;;;;5.32;0.70;;;;;;;11.40;46.58;101329.78;4955032;28;20069;-75
2023/05/01 09:09:01;;;;;;;8.00;0.70;;;;;;;11.41;46.65;101341.94;4958872;28;20543;-74
2023/05/01 09:11:28;;;;;;;4.18;0.68;;;;;;;11.41;46.67;101336.72;4956804;28;20812;-73
2023/05/01 09:13:55;;;;;;;6.47;0.60;;;;;;;11.42;46.81;101331.47;4956759;28;20057;-74
2023/05/01 09:16:24;;;;;;;3.95;0.70;;;;;;;11.44;46.48;101328.81;4957362;28;20404;-74
2023/05/01 09:18:51;;;;;;;5.65;0.70;;;;;;;11.45;46.41;101331.44;4956668;28;20047;-74
2023/05/01 09:21:18;;;;;;;9.25;0.82;;;;;;;11.47;46.23;101323.59;4952100;28;20062;-74
2023/05/01 09:23:45;;;;;;;5.63;1.10;;;;;;;11.49;46.89;101324.41;4961304;28;20051;-74
2023/05/01 09:26:12;;;;;;;5.88;0.70;;;;;;;11.52;46.54;101320.88;4953017;28;20053;-74
2023/05/01 09:28:41;;;;;;;7.35;1.15;;;;;;;11.52;46.41;101315.66;4955134;28;20062;-74
2023/05/01 09:31:22;;;;;;;7.50;1.00;;;;;;;11.56;46.83;101314.75;4951501;28;20061;-74
2023/05/01 09:33:55;;;;;;;6.55;1.02;;;;;;;11.57;47.02;101317.31;4956068;28;20480;-74
2023/05/01 09:36:23;;;;;;;2.63;0.73;;;;;;;11.57;46.69;101306.84;4960525;28;20051;-75
2023/05/01 09:38:50;;;;;;;5.30;1.00;;;;;;;11.60;46.91;101311.19;4956685;28;20042;-74
2023/05/01 09:41:17;;;;;;;6.50;0.80;;;;;;;11.60;46.79;101317.28;4957076;28;20047;-74
2023/05/01 09:43:49;;;;;;;4.82;0.70;;;;;;;11.60;46.96;101306.81;4959046;28;21201;-78
2023/05/01 09:46:17;;;;;;;4.88;0.60;;;;;;;11.58;46.43;101307.72;4954456;28;20051;-75
2023/05/01 09:48:55;;;;;;;1.70;0.52;;;;;;;11.57;46.42;101306.84;4958356;28;20040;-76
2023/05/01 09:51:24;;;;;;;3.75;0.60;;;;;;;11.53;46.38;101293.84;4959536;28;20051;-75
2023/05/01 09:53:52;;;;;;;6.68;0.80;;;;;;;11.56;46.56;101299.03;4958552;28;20427;-76
2023/05/01 09:56:20;;;;;;;6.05;1.10;;;;;;;11.57;46.61;101303.38;4959679;28;20162;-75
2023/05/01 09:58:47;;;;;;;5.85;1.00;;;;;;;11.56;46.49;101301.66;4955616;28;20086;-76
2023/05/01 10:01:15;;;;;;;2.42;0.63;;;;;;;11.56;46.34;101296.44;4953083;28;20077;-75
2023/05/01 10:03:44;;;;;;;6.90;1.10;;;;;;;11.56;46.48;101296.44;4956773;28;20052;-76
2023/05/01 10:06:12;;;;;;;3.00;0.80;;;;;;;11.56;46.89;101299.03;4955920;28;20051;-75
2023/05/01 10:08:47;;;;;;;5.40;0.80;;;;;;;11.55;47.13;101294.69;4957256;28;20044;-76
2023/05/01 10:11:14;;;;;;;5.15;0.80;;;;;;;11.57;47.39;101298.16;4928119;28;20407;-76
2023/05/01 10:13:41;;;;;;;7.35;0.80;;;;;;;11.55;47.07;101286.81;4956136;28;20063;-75
2023/05/01 10:16:27;;;;;;;4.20;0.50;;;;;;;11.54;47.03;101282.50;4954541;28;20051;-76
2023/05/01 10:18:56;;;;;;;7.88;0.70;;;;;;;11.55;47.24;101277.22;4957819;28;20058;-75
2023/05/01 10:21:24;;;;;;;4.50;0.70;;;;;;;11.55;46.62;101272.00;4953113;28;20047;-75
2023/05/01 10:23:52;;;;;;;4.82;0.70;;;;;;;11.57;47.08;101277.22;4960369;28;20054;-75
2023/05/01 10:26:19;;;;;;;2.28;0.68;;;;;;;11.58;47.02;101273.69;4958792;28;20105;-75
2023/05/01 10:28:48;;;;;;;1.23;0.60;;;;;;;11.55;47.11;101260.66;4958748;28;20055;-77
2023/05/01 10:31:16;;;;;;;3.35;0.57;;;;;;;11.53;46.95;101263.31;4955280;28;20083;-74
2023/05/01 10:33:43;;;;;;;3.67;0.45;;;;;;;11.53;46.93;101263.31;4955562;28;20059;-75
2023/05/01 10:36:17;;;;;;;5.15;0.40;;;;;;;11.54;46.79;101251.09;4954075;28;20134;-75
2023/05/01 10:38:47;;;;;;;3.13;0.50;;;;;;;11.55;46.29;101253.66;4954152;28;20047;-75
2023/05/01 10:41:15;;;;;;;5.25;0.50;;;;;;;11.56;45.79;101258.03;4958958;28;20047;-75
2023/05/01 10:43:42;;;;;;;4.97;1.17;;;;;;;11.58;45.80;101247.53;4958917;28;20051;-75
2023/05/01 10:46:28;;;;;;;8.48;1.25;;;;;;;11.58;45.44;101255.38;4962682;28;20748;-74
2023/05/01 10:48:58;;;;;;;;;;;;;;;11.58;45.88;101234.44;4958802;28;20508;-75
2023/05/01 10:51:26;;;;;;;7.60;1.30;;;;;;;11.54;45.56;101238.88;4960311;28;19931;-75
2023/05/01 10:54:26;;;;;;;4.38;0.57;;;;;;;11.57;45.65;101236.22;4956396;28;20051;-74
2023/05/01 10:56:54;;;;;;;2.47;0.52;;;;;;;11.55;45.80;101244.97;4964557;28;20051;-75
2023/05/01 10:59:21;;;;;;;2.80;0.68;;;;;;;11.54;45.17;101236.25;4959291;28;20051;-75
2023/05/01 11:01:50;;;;;;;2.75;0.68;;;;;;;11.51;45.43;101235.44;4961787;28;20410;-74
2023/05/01 11:04:54;;;;;;;7.45;0.77;;;;;;;11.50;45.82;101229.34;4961324;28;20126;-75
2023/05/01 11:07:22;;;;;;;3.72;0.80;;;;;;;11.48;45.96;101225.88;4899774;29;20044;-74
2023/05/01 11:09:54;;;;;;;2.15;0.70;;;;;;;11.48;46.64;101228.50;4949411;28;20142;-74
2023/05/01 11:12:49;;;;;;;3.63;0.82;;;;;;;11.49;46.41;101215.38;4957984;28;20051;-74
2023/05/01 11:15:29;;;;;;;3.05;0.88;;;;;;;11.51;46.66;101211.91;4955939;28;20121;-76
2023/05/01 11:17:57;;;;;;;2.28;0.75;;;;;;;11.48;47.00;101213.66;4959891;28;20612;-74
2023/05/01 11:20:47;;;;;;;2.55;0.80;;;;;;;11.48;46.88;101211.06;4962580;28;20047;-74
2023/05/01 11:23:20;;;;;;;5.85;0.60;;;;;;;11.48;46.76;101208.44;4959301;28;20047;-74
2023/05/01 11:25:50;;;;;;;1.42;0.60;;;;;;;11.49;46.92;101210.16;4959501;28;20050;-74
2023/05/01 11:28:23;;;;;;;2.85;0.70;;;;;;;11.50;47.22;101203.19;4959951;28;20063;-75
2023/05/01 11:30:51;;;;;;;2.45;0.70;;;;;;;11.49;47.22;101204.06;4961158;28;20098;-74
2023/05/01 11:33:24;;;;;;;2.35;0.80;;;;;;;11.49;47.04;101193.59;4961276;28;20054;-75
2023/05/01 11:36:01;;;;;;;2.85;0.60;;;;;;;11.48;46.59;101192.75;4960285;28;20134;-74
2023/05/01 11:38:28;;;;;;;2.55;0.47;;;;;;;11.47;47.14;101191.03;4959693;28;20085;-75
2023/05/01 11:41:00;;;;;;;2.65;1.05;;;;;;;11.45;46.23;101186.69;4956947;28;20062;-75